Time;durP1;ratioP1;P1;durP2;ratioP2;P2;SDS_P1;SDS_P2;PMS_P1;PMS_P2;Temp;Humidity;BMP_temperature;BMP_pressure;BME280_temperature;BME280_humidity;BME280_pressure;Samples;Min_cycle;Max_cycle;Signal;HPM_P1;HPM_P2
2023/10/14 00:01:11;;;;;;;12.38;1.83;;;;;;;14.07;100.00;100209.00;5027724;28;20108;-62
2023/10/14 00:03:42;;;;;;;9.75;1.60;;;;;;;14.17;100.00;100219.88;5027198;28;20035;-62
2023/10/14 00:06:11;;;;;;;6.13;1.60;;;;;;;14.13;100.00;100216.59;5026188;28;20060;-63
2023/10/14 00:11:22;;;;;;;10.52;1.52;;;;;;;14.08;100.00;100221.28;5026930;28;20038;-64
2023/10/14 00:13:49;;;;;;;8.43;1.60;;;;;;;14.10;100.00;100248.56;5027310;28;20075;-65
2023/10/14 00:16:41;;;;;;;10.82;2.65;;;;;;;13.97;100.00;100252.84;5026846;28;20036;-61
2023/10/14 00:19:09;;;;;;;9.15;2.25;;;;;;;13.87;100.00;100250.72;5025881;28;20660;-64
2023/10/14 00:21:35;;;;;;;10.60;1.98;;;;;;;13.75;100.00;100259.34;5026717;28;20053;-65
2023/10/14 00:24:03;;;;;;;10.10;2.00;;;;;;;13.79;100.00;100262.69;5027575;28;20052;-64
2023/10/14 00:26:29;;;;;;;15.90;2.78;;;;;;;13.69;100.00;100272.97;5039427;28;20032;-64
2023/10/14 00:28:55;;;;;;;13.68;2.22;;;;;;;13.77;100.00;100276.03;5047168;28;20037;-61
2023/10/14 00:31:24;;;;;;;10.00;2.38;;;;;;;13.78;100.00;100280.38;5050030;28;20155;-64
2023/10/14 00:33:52;;;;;;;15.43;2.13;;;;;;;13.80;100.00;100288.22;5051202;28;20052;-64
2023/10/14 00:36:29;;;;;;;8.43;2.15;;;;;;;13.79;100.00;100297.13;5050189;28;20032;-65
2023/10/14 00:38:57;;;;;;;14.18;2.08;;;;;;;13.81;100.00;100306.69;5051317;28;20064;-63
2023/10/14 00:41:26;;;;;;;12.05;1.75;;;;;;;13.87;100.00;100308.97;5049948;28;20499;-64
2023/10/14 00:43:56;;;;;;;12.20;1.80;;;;;;;13.88;100.00;100320.44;5050502;28;20024;-62
2023/10/14 00:46:23;;;;;;;12.45;2.47;;;;;;;13.83;100.00;100333.94;5010985;28;20042;-63
2023/10/14 00:48:58;;;;;;;13.63;2.15;;;;;;;13.86;100.00;100331.13;5008828;28;20113;-64
2023/10/14 00:51:26;;;;;;;13.43;3.03;;;;;;;13.89;100.00;100343.31;5010152;28;20452;-66
2023/10/14 00:53:52;;;;;;;18.40;2.35;;;;;;;13.82;100.00;100340.16;5009473;28;20476;-63
2023/10/14 00:56:27;;;;;;;15.90;2.72;;;;;;;13.78;100.00;100346.56;5031498;28;20017;-64
2023/10/14 00:58:57;;;;;;;12.88;2.67;;;;;;;13.87;100.00;100356.66;5048600;28;20504;-64
2023/10/14 01:01:23;;;;;;;18.02;2.60;;;;;;;13.81;100.00;100359.63;5048733;28;20479;-63
2023/10/14 01:03:50;;;;;;;14.50;2.38;;;;;;;13.66;100.00;100357.84;5049857;28;20025;-64
2023/10/14 01:08:49;;;;;;;16.58;2.50;;;;;;;13.51;100.00;100371.81;5049889;28;20033;-62
2023/10/14 01:11:17;;;;;;;10.30;2.28;;;;;;;13.43;100.00;100387.25;5101065;22;20065;-65
2023/10/14 01:13:44;;;;;;;10.23;2.75;;;;;;;13.33;100.00;100384.22;5010646;28;20030;-63
2023/10/14 01:16:10;;;;;;;11.15;3.22;;;;;;;13.29;100.00;100384.44;5010378;28;20030;-63
2023/10/14 01:18:38;;;;;;;8.00;1.70;;;;;;;13.11;100.00;100390.63;5009944;28;20029;-60
2023/10/14 01:21:06;;;;;;;10.73;2.20;;;;;;;13.03;100.00;100403.38;5009990;28;20065;-63
2023/10/14 01:23:38;;;;;;;10.15;2.47;;;;;;;12.98;100.00;100411.56;5010920;28;20022;-64
2023/10/14 01:26:04;;;;;;;11.43;2.33;;;;;;;12.89;100.00;100407.59;5010004;28;20056;-65
2023/10/14 01:28:30;;;;;;;13.00;2.97;;;;;;;12.80;100.00;100413.38;5010116;28;20033;-65
2023/10/14 01:33:56;;;;;;;17.23;2.42;;;;;;;12.74;100.00;100427.72;5007850;28;20484;-64
2023/10/14 01:36:32;;;;;;;15.25;2.53;;;;;;;12.66;100.00;100434.31;5009926;28;20014;-64
2023/10/14 01:39:04;;;;;;;17.77;2.63;;;;;;;12.70;100.00;100441.19;5010541;28;20033;-62
2023/10/14 01:41:30;;;;;;;16.05;2.42;;;;;;;12.62;100.00;100445.03;5008861;28;20623;-64
2023/10/14 01:43:58;;;;;;;12.85;2.17;;;;;;;12.54;100.00;100444.56;5009896;28;20037;-62
2023/10/14 01:46:27;;;;;;;9.38;2.47;;;;;;;12.48;100.00;100444.88;5009511;28;20615;-64
2023/10/14 01:48:52;;;;;;;14.43;2.33;;;;;;;12.49;100.00;100449.22;5013032;28;20124;-65
2023/10/14 01:51:19;;;;;;;11.40;2.38;;;;;;;12.45;100.00;100447.66;5029473;28;20097;-65
2023/10/14 01:53:44;;;;;;;13.70;2.30;;;;;;;12.47;100.00;100451.09;5028568;28;20040;-63
2023/10/14 01:56:10;;;;;;;11.27;2.25;;;;;;;12.41;100.00;100461.94;5029810;28;20030;-64
2023/10/14 01:58:36;;;;;;;11.50;1.98;;;;;;;12.42;100.00;100463.66;5029153;28;20029;-65
2023/10/14 02:03:43;;;;;;;14.55;2.28;;;;;;;12.41;100.00;100486.59;5029264;28;20033;-63
2023/10/14 02:06:26;;;;;;;12.13;2.00;;;;;;;12.48;100.00;100476.56;5029394;28;20053;-64
2023/10/14 02:08:52;;;;;;;11.68;2.00;;;;;;;12.44;100.00;100498.78;5028089;28;20033;-65
2023/10/14 02:11:21;;;;;;;13.73;2.20;;;;;;;12.44;100.00;100493.50;5029019;28;20492;-63
2023/10/14 02:13:51;;;;;;;15.68;2.60;;;;;;;12.42;100.00;100504.16;5018941;28;20026;-66
2023/10/14 02:16:38;;;;;;;9.45;1.98;;;;;;;12.38;100.00;100508.72;5008720;28;20080;-63
2023/10/14 02:19:17;;;;;;;16.85;2.75;;;;;;;12.27;100.00;100516.28;5008172;28;20048;-64
2023/10/14 02:21:43;;;;;;;12.88;2.33;;;;;;;12.28;100.00;100528.56;5008953;28;20109;-64
2023/10/14 02:24:10;;;;;;;12.93;2.20;;;;;;;12.28;100.00;100540.94;5009210;28;20022;-64
2023/10/14 02:26:38;;;;;;;12.80;2.20;;;;;;;12.30;100.00;100536.41;5009318;28;20384;-63
2023/10/14 02:29:10;;;;;;;12.43;2.22;;;;;;;12.27;100.00;100545.34;5009455;28;20030;-66
2023/10/14 02:31:38;;;;;;;13.63;2.05;;;;;;;12.28;100.00;100556.78;5009097;28;20025;-66
2023/10/14 02:34:07;;;;;;;14.32;2.40;;;;;;;12.27;100.00;100558.56;5008391;28;20037;-65
2023/10/14 02:36:49;;;;;;;14.20;2.22;;;;;;;12.27;100.00;100566.47;5007392;28;20089;-64
2023/10/14 02:39:15;;;;;;;13.00;2.30;;;;;;;12.35;100.00;100566.13;5009344;28;20152;-66
2023/10/14 02:41:58;;;;;;;14.80;2.00;;;;;;;12.39;100.00;100573.00;4991076;28;20372;-63
2023/10/14 02:44:28;;;;;;;9.18;1.90;;;;;;;12.40;100.00;100577.34;5008135;28;20384;-64
2023/10/14 02:46:54;;;;;;;11.68;1.70;;;;;;;12.41;100.00;100580.84;5024881;28;20467;-62
2023/10/14 02:49:24;;;;;;;13.65;2.20;;;;;;;12.42;100.00;100586.06;5027564;28;20083;-65
2023/10/14 02:51:51;;;;;;;16.85;2.92;;;;;;;12.43;100.00;100594.88;5028116;28;20029;-67
2023/10/14 02:54:33;;;;;;;9.25;1.80;;;;;;;12.45;100.00;100603.56;5028902;28;20021;-65
2023/10/14 02:57:00;;;;;;;19.88;2.45;;;;;;;12.45;100.00;100620.28;5028298;28;20029;-65
2023/10/14 02:59:38;;;;;;;10.70;1.90;;;;;;;12.38;100.00;100619.69;5029036;28;20049;-65
2023/10/14 03:07:36;;;;;;;12.27;2.00;;;;;;;12.28;100.00;100636.88;4978337;28;20053;-67
2023/10/14 03:10:18;;;;;;;14.30;2.15;;;;;;;12.22;100.00;100642.44;5008101;28;20033;-67
2023/10/14 03:12:50;;;;;;;16.52;2.25;;;;;;;12.16;100.00;100646.19;5007728;28;20447;-64
2023/10/14 03:15:20;;;;;;;15.35;2.15;;;;;;;12.08;100.00;100658.91;5007571;28;20049;-63
2023/10/14 03:17:53;;;;;;;15.55;2.45;;;;;;;12.17;100.00;100669.06;5007913;28;20578;-65
2023/10/14 03:22:57;;;;;;;7.68;1.67;;;;;;;12.18;100.00;100665.50;5007313;28;20074;-62
2023/10/14 03:25:23;;;;;;;8.85;1.80;;;;;;;12.17;100.00;100679.63;5007075;28;20060;-64
2023/10/14 03:27:58;;;;;;;12.90;2.30;;;;;;;12.23;100.00;100673.22;5007954;28;20469;-64
2023/10/14 03:30:24;;;;;;;12.23;2.55;;;;;;;12.21;100.00;100680.34;5007941;28;20076;-66
2023/10/14 03:32:49;;;;;;;12.38;2.22;;;;;;;12.24;100.00;100677.56;5007076;28;20026;-66
2023/10/14 03:35:20;;;;;;;13.18;1.98;;;;;;;12.25;100.00;100679.28;5006862;28;20029;-63
2023/10/14 03:37:53;;;;;;;10.23;1.67;;;;;;;12.25;100.00;100688.06;5007597;28;20057;-65
2023/10/14 03:43:08;;;;;;;12.68;2.25;;;;;;;12.23;100.00;100694.34;5006498;28;20472;-64
2023/10/14 03:45:45;;;;;;;16.48;2.40;;;;;;;12.13;100.00;100705.31;5006319;28;20045;-65
2023/10/14 03:48:10;;;;;;;14.13;2.55;;;;;;;12.03;100.00;100708.34;5007348;28;20030;-66
2023/10/14 03:50:38;;;;;;;12.85;2.22;;;;;;;11.99;100.00;100712.94;5006674;28;20029;-64
2023/10/14 03:53:05;;;;;;;9.63;2.10;;;;;;;11.98;100.00;100711.22;5014561;28;20049;-63
2023/10/14 03:55:31;;;;;;;13.85;2.55;;;;;;;11.96;100.00;100718.34;5027702;28;20040;-63
2023/10/14 03:58:03;;;;;;;11.90;2.33;;;;;;;11.98;100.00;100717.34;5027173;28;20013;-64
2023/10/14 04:00:38;;;;;;;14.50;2.17;;;;;;;11.96;100.00;100732.41;5010792;28;20034;-66
2023/10/14 04:03:11;;;;;;;13.45;2.25;;;;;;;11.93;100.00;100723.75;5007483;28;20468;-64
2023/10/14 04:05:37;;;;;;;9.23;1.88;;;;;;;11.91;100.00;100731.72;5017432;28;20034;-64
2023/10/14 04:08:05;;;;;;;11.15;2.13;;;;;;;11.84;100.00;100730.25;5031626;28;20034;-64
2023/10/14 04:10:34;;;;;;;13.50;2.30;;;;;;;11.77;100.00;100737.56;5030529;28;20057;-64
2023/10/14 04:13:04;;;;;;;;;;;;;;;11.81;100.00;100744.47;5032750;28;20030;-64
2023/10/14 04:17:55;;;;;;;14.68;2.00;;;;;;;11.72;100.00;100755.38;5031377;28;20039;-65
2023/10/14 04:20:32;;;;;;;16.33;2.22;;;;;;;11.73;100.00;100760.59;5016295;28;20057;-64
2023/10/14 04:22:58;;;;;;;8.45;2.05;;;;;;;11.73;100.00;100765.88;5011257;28;20024;-63
2023/10/14 04:25:42;;;;;;;21.92;2.08;;;;;;;11.69;100.00;100769.56;5011675;28;20033;-64
2023/10/14 04:30:42;;;;;;;13.32;2.70;;;;;;;11.74;100.00;100783.44;4990907;28;20126;-63
2023/10/14 04:33:25;;;;;;;8.87;2.20;;;;;;;11.75;100.00;100785.13;4989837;28;20480;-63
2023/10/14 04:36:21;;;;;;;10.23;2.20;;;;;;;11.75;100.00;100786.94;4991306;28;20277;-65
2023/10/14 04:38:44;;;;;;;11.45;1.90;;;;;;;11.78;100.00;100797.38;4991110;28;20453;-65
2023/10/14 04:41:14;;;;;;;17.73;3.13;;;;;;;11.80;100.00;100789.41;4991591;28;20023;-66
2023/10/14 04:46:16;;;;;;;16.65;2.80;;;;;;;11.80;100.00;100807.88;4991984;28;20050;-63
2023/10/14 04:48:50;;;;;;;18.17;2.45;;;;;;;11.83;100.00;100818.31;5003855;28;20044;-64
2023/10/14 04:51:16;;;;;;;12.50;2.38;;;;;;;11.83;100.00;100829.72;5011437;28;20365;-64
2023/10/14 04:53:49;;;;;;;21.10;2.58;;;;;;;11.84;100.00;100830.59;5010368;28;20029;-64
2023/10/14 04:56:21;;;;;;;16.77;2.72;;;;;;;11.85;100.00;100833.16;5010062;28;20037;-66
2023/10/14 04:58:47;;;;;;;21.88;2.85;;;;;;;11.82;100.00;100833.28;5010408;28;20018;-64
2023/10/14 05:01:18;;;;;;;16.10;2.88;;;;;;;11.88;100.00;100846.25;5018194;28;20148;-64
2023/10/14 05:03:46;;;;;;;19.33;2.83;;;;;;;11.78;100.00;100844.88;5030291;28;20461;-62
2023/10/14 05:08:51;;;;;;;15.20;2.53;;;;;;;11.78;100.00;100846.66;5030997;28;20033;-63
2023/10/14 05:11:18;;;;;;;15.50;2.67;;;;;;;11.72;100.00;100853.03;5030180;28;20095;-63
2023/10/14 05:13:53;;;;;;;15.13;2.58;;;;;;;11.72;100.00;100874.16;5022631;28;20380;-67
2023/10/14 05:16:22;;;;;;;15.82;2.60;;;;;;;11.77;100.00;100869.53;5011596;28;20034;-65
2023/10/14 05:19:01;;;;;;;10.52;2.58;;;;;;;11.84;100.00;100870.19;5010456;28;20033;-66
2023/10/14 05:21:36;;;;;;;9.50;2.30;;;;;;;11.79;100.00;100869.50;5008390;28;20033;-64
2023/10/14 05:24:09;;;;;;;16.63;2.13;;;;;;;11.80;100.00;100874.72;5009879;28;20017;-65
2023/10/14 05:26:44;;;;;;;13.10;2.70;;;;;;;11.75;100.00;100874.03;5012266;28;20116;-67
2023/10/14 05:29:19;;;;;;;15.88;3.13;;;;;;;11.74;100.00;100882.91;5028837;28;20056;-65
2023/10/14 05:31:48;;;;;;;15.43;3.15;;;;;;;11.74;100.00;100886.38;5014477;28;20025;-62
2023/10/14 05:34:14;;;;;;;16.05;2.22;;;;;;;11.72;100.00;100882.06;5013033;28;20428;-63
2023/10/14 05:36:40;;;;;;;15.90;2.65;;;;;;;11.73;100.00;100889.94;5026990;28;20033;-62
2023/10/14 05:39:06;;;;;;;14.10;2.35;;;;;;;11.70;100.00;100897.09;5025812;28;20026;-62
2023/10/14 05:41:33;;;;;;;17.20;2.30;;;;;;;11.61;100.00;100895.66;5028204;28;20044;-64
2023/10/14 05:43:59;;;;;;;13.20;3.00;;;;;;;11.60;100.00;100908.03;5028033;28;20084;-62
2023/10/14 05:46:24;;;;;;;10.80;2.53;;;;;;;11.59;100.00;100906.28;5024855;28;20360;-61
2023/10/14 05:48:53;;;;;;;14.43;2.55;;;;;;;11.59;100.00;100906.28;5018646;28;20075;-62
2023/10/14 05:51:19;;;;;;;16.15;2.50;;;;;;;11.58;100.00;100911.63;5017167;28;20025;-62
2023/10/14 05:53:46;;;;;;;18.85;2.67;;;;;;;11.51;100.00;100913.63;5008212;28;20034;-64
2023/10/14 05:56:15;;;;;;;13.93;2.80;;;;;;;11.48;100.00;100919.91;5008247;28;20026;-60
2023/10/14 05:58:41;;;;;;;12.73;2.17;;;;;;;11.54;100.00;100918.81;5008120;28;20022;-63
2023/10/14 06:01:12;;;;;;;18.23;2.45;;;;;;;11.65;100.00;100928.94;5007108;28;20432;-62
2023/10/14 06:03:38;;;;;;;11.77;2.40;;;;;;;11.77;100.00;100932.91;5007249;28;20112;-65
2023/10/14 06:06:09;;;;;;;14.32;2.33;;;;;;;11.84;100.00;100942.34;5008661;28;20022;-62
2023/10/14 06:08:35;;;;;;;15.13;2.75;;;;;;;11.91;100.00;100942.97;5008074;28;20014;-63
2023/10/14 06:11:00;;;;;;;7.93;1.90;;;;;;;11.98;100.00;100946.25;5007902;28;20377;-61
2023/10/14 06:13:27;;;;;;;12.23;2.28;;;;;;;12.03;100.00;100957.47;5008092;28;20014;-63
2023/10/14 06:15:53;;;;;;;12.75;2.40;;;;;;;12.09;100.00;100965.19;5008001;28;20555;-61
2023/10/14 06:18:18;;;;;;;16.95;2.70;;;;;;;12.13;100.00;100969.44;5006966;28;20104;-62
2023/10/14 06:20:45;;;;;;;15.43;2.95;;;;;;;12.16;100.00;100975.53;4990209;28;20030;-62
2023/10/14 06:23:11;;;;;;;17.60;2.63;;;;;;;12.11;100.00;100981.84;5008018;28;20132;-61
2023/10/14 06:25:38;;;;;;;18.02;2.88;;;;;;;12.09;100.00;100982.81;5007077;28;20480;-62
2023/10/14 06:28:04;;;;;;;11.05;2.70;;;;;;;12.07;100.00;100984.69;5013470;28;20041;-63
2023/10/14 06:30:30;;;;;;;19.58;2.85;;;;;;;12.08;100.00;100987.25;5011084;28;20421;-62
2023/10/14 06:33:03;;;;;;;18.67;3.03;;;;;;;12.00;100.00;100986.63;4998491;28;20033;-63
2023/10/14 06:35:33;;;;;;;16.38;2.90;;;;;;;12.04;100.00;100996.16;5008127;28;20026;-66
2023/10/14 06:37:58;;;;;;;22.83;2.92;;;;;;;12.05;100.00;100999.66;5006766;28;20117;-65
2023/10/14 06:40:24;;;;;;;10.93;2.55;;;;;;;12.00;100.00;101006.00;5006523;28;20433;-65
2023/10/14 06:42:50;;;;;;;16.98;2.83;;;;;;;12.03;100.00;101005.00;5006609;28;20038;-65
2023/10/14 06:45:18;;;;;;;12.65;2.83;;;;;;;11.99;100.00;101008.69;5007074;28;20049;-66
2023/10/14 06:47:50;;;;;;;15.47;2.97;;;;;;;12.11;100.00;101015.31;5007746;28;20026;-63
2023/10/14 06:50:25;;;;;;;16.13;3.28;;;;;;;12.16;100.00;101023.91;5007233;28;20109;-62
2023/10/14 06:52:58;;;;;;;10.48;2.58;;;;;;;12.11;100.00;101039.97;5002384;28;20025;-64
2023/10/14 06:55:27;;;;;;;14.18;2.20;;;;;;;12.12;100.00;101041.69;5027362;28;20018;-63
2023/10/14 06:57:54;;;;;;;19.77;3.00;;;;;;;12.17;100.00;101038.88;5011520;28;20061;-63
2023/10/14 07:00:26;;;;;;;18.90;2.42;;;;;;;12.20;100.00;101043.16;5007208;28;20026;-65
2023/10/14 07:02:54;;;;;;;18.48;2.78;;;;;;;12.24;100.00;101052.69;5005005;28;20420;-63
2023/10/14 07:05:21;;;;;;;13.60;2.33;;;;;;;12.32;100.00;101061.22;5005797;28;20040;-63
2023/10/14 07:07:49;;;;;;;7.32;1.95;;;;;;;12.36;100.00;101068.09;5005061;28;20025;-63
2023/10/14 07:10:15;;;;;;;18.30;2.67;;;;;;;12.34;100.00;101067.28;5007337;28;20447;-61
2023/10/14 07:12:41;;;;;;;14.45;3.25;;;;;;;12.40;100.00;101074.13;5007536;28;20032;-64
2023/10/14 07:15:12;;;;;;;16.13;2.72;;;;;;;12.50;100.00;101078.13;5007606;28;20424;-64
2023/10/14 07:17:39;;;;;;;11.20;2.45;;;;;;;12.74;100.00;101090.47;5023319;28;20418;-64
2023/10/14 07:20:07;;;;;;;15.43;2.65;;;;;;;12.94;100.00;101080.91;5025931;28;20405;-61
2023/10/14 07:22:32;;;;;;;19.23;3.25;;;;;;;13.05;100.00;101080.44;5025828;28;20021;-64
2023/10/14 07:24:57;;;;;;;16.65;2.70;;;;;;;13.17;100.00;101090.53;5026540;28;20074;-63
2023/10/14 07:27:23;;;;;;;17.65;2.53;;;;;;;13.32;100.00;101085.53;5025804;28;20506;-61
2023/10/14 07:29:49;;;;;;;23.05;3.20;;;;;;;13.32;100.00;101096.13;5010745;28;20044;-62
2023/10/14 07:32:15;;;;;;;17.98;2.67;;;;;;;13.23;100.00;101103.53;5005734;28;20030;-63
2023/10/14 07:34:43;;;;;;;15.10;3.05;;;;;;;13.19;100.00;101109.00;5004173;28;20021;-64
2023/10/14 07:37:09;;;;;;;14.85;3.22;;;;;;;13.34;100.00;101104.88;5006464;28;20030;-63
2023/10/14 07:39:35;;;;;;;19.85;3.28;;;;;;;13.41;100.00;101114.25;5020805;28;20060;-63
2023/10/14 07:42:09;;;;;;;26.83;3.30;;;;;;;13.34;100.00;101107.50;5026932;28;20029;-61
2023/10/14 07:44:34;;;;;;;23.48;3.03;;;;;;;13.34;100.00;101124.22;5025803;28;20079;-62
2023/10/14 07:47:00;;;;;;;14.35;3.67;;;;;;;13.32;100.00;101135.81;5026766;28;20422;-63
2023/10/14 07:49:25;;;;;;;15.32;3.10;;;;;;;13.27;100.00;101136.00;5025070;28;20325;-62
2023/10/14 07:51:52;;;;;;;20.48;3.25;;;;;;;13.15;100.00;101140.00;5026647;28;20037;-63
2023/10/14 07:54:18;;;;;;;12.25;2.38;;;;;;;13.09;100.00;101149.03;5026384;28;20476;-62
2023/10/14 07:56:46;;;;;;;17.88;2.67;;;;;;;13.03;100.00;101154.56;5024956;28;20036;-65
2023/10/14 07:59:11;;;;;;;12.80;2.55;;;;;;;13.06;100.00;101154.44;5026102;28;20021;-61
2023/10/14 08:01:38;;;;;;;17.83;3.03;;;;;;;13.08;99.44;101143.81;5012288;28;20048;-63
2023/10/14 08:04:07;;;;;;;16.05;2.88;;;;;;;13.11;98.34;101156.91;5005965;28;20109;-63
2023/10/14 08:06:34;;;;;;;11.45;2.22;;;;;;;13.16;97.83;101149.69;5004922;28;20033;-62
2023/10/14 08:09:00;;;;;;;15.50;2.60;;;;;;;13.26;100.00;101161.63;5006351;28;20026;-62
2023/10/14 08:11:25;;;;;;;17.77;2.72;;;;;;;13.22;96.36;101161.78;5005465;28;20049;-62
2023/10/14 08:13:50;;;;;;;15.93;2.83;;;;;;;13.25;93.24;101181.03;5005905;28;20038;-64
2023/10/14 08:16:16;;;;;;;16.92;2.58;;;;;;;13.37;94.40;101192.91;5006580;28;20042;-63
2023/10/14 08:18:41;;;;;;;12.13;2.22;;;;;;;13.45;94.13;101181.19;5005245;28;20088;-63
2023/10/14 08:21:09;;;;;;;15.18;2.20;;;;;;;13.46;94.05;101172.31;5020483;28;20036;-64
2023/10/14 08:23:35;;;;;;;10.20;2.40;;;;;;;13.50;93.34;101179.22;5025478;28;20021;-62
2023/10/14 08:26:02;;;;;;;12.93;2.10;;;;;;;13.49;92.65;101190.72;5024634;28;20086;-62
2023/10/14 08:28:27;;;;;;;14.48;2.67;;;;;;;13.54;92.29;101217.88;5024567;28;20496;-62
2023/10/14 08:30:55;;;;;;;18.13;2.88;;;;;;;13.59;92.73;101194.75;5005840;28;20081;-63
2023/10/14 08:33:22;;;;;;;14.27;2.53;;;;;;;13.62;93.07;101193.75;5005143;28;20026;-62
2023/10/14 08:35:50;;;;;;;19.05;2.60;;;;;;;13.61;93.42;101213.22;5006126;28;20033;-63
2023/10/14 08:38:27;;;;;;;13.57;2.70;;;;;;;13.66;94.96;101216.53;5006159;28;20022;-60
2023/10/14 08:40:53;;;;;;;13.80;2.35;;;;;;;13.70;93.16;101215.47;5005692;28;20165;-62
2023/10/14 08:43:35;;;;;;;24.52;3.75;;;;;;;13.82;94.53;101208.81;5005341;28;20034;-63
2023/10/14 08:46:01;;;;;;;16.10;2.58;;;;;;;13.86;91.08;101223.66;5006631;28;20030;-65
2023/10/14 08:48:27;;;;;;;11.38;2.92;;;;;;;14.03;91.47;101219.44;5003129;28;20053;-64
2023/10/14 08:50:56;;;;;;;13.27;2.47;;;;;;;14.16;88.72;101217.13;5005307;28;20049;-65
2023/10/14 08:53:22;;;;;;;;;;;;;;;14.26;90.34;101236.13;5010335;28;20018;-62
2023/10/14 08:55:48;;;;;;;18.63;2.85;;;;;;;14.19;88.38;101226.72;5009048;28;20004;-64
2023/10/14 08:58:14;;;;;;;14.75;2.65;;;;;;;14.20;90.78;101234.59;5010076;28;20029;-65
2023/10/14 09:00:41;;;;;;;13.57;2.97;;;;;;;14.09;87.99;101243.00;5009549;28;20104;-62
2023/10/14 09:03:09;;;;;;;13.07;3.05;;;;;;;14.05;89.61;101245.88;5010741;28;20442;-64
2023/10/14 09:05:40;;;;;;;14.20;2.65;;;;;;;13.92;90.30;101245.50;5011030;28;20018;-65
2023/10/14 09:08:06;;;;;;;15.02;2.78;;;;;;;13.97;91.94;101246.19;5008851;28;20192;-65
2023/10/14 09:10:33;;;;;;;16.95;2.78;;;;;;;14.01;90.50;101253.94;5005163;28;20168;-65
2023/10/14 09:13:08;;;;;;;15.43;2.60;;;;;;;14.19;91.53;101259.41;5011686;28;20045;-64
2023/10/14 09:15:38;;;;;;;17.63;2.70;;;;;;;14.20;87.23;101262.88;5006395;28;20120;-66
2023/10/14 09:18:11;;;;;;;10.70;2.22;;;;;;;14.30;83.64;101268.69;5008873;28;20026;-66
2023/10/14 09:20:38;;;;;;;13.40;2.22;;;;;;;14.52;85.36;101258.88;5009470;28;20026;-64
2023/10/14 09:23:23;;;;;;;15.40;2.60;;;;;;;14.70;84.84;101276.66;5007692;28;20105;-65
2023/10/14 09:25:55;;;;;;;14.90;2.45;;;;;;;14.75;85.36;101275.53;5010433;28;20089;-64
2023/10/14 09:28:23;;;;;;;16.83;2.97;;;;;;;14.82;85.01;101264.69;5008251;28;20018;-63
2023/10/14 09:30:54;;;;;;;12.95;2.33;;;;;;;14.76;77.98;101266.66;5007169;28;20018;-63
2023/10/14 09:33:22;;;;;;;14.15;2.83;;;;;;;14.68;78.68;101271.44;5013511;28;20029;-62
2023/10/14 09:35:49;;;;;;;13.13;2.23;;;;;;;14.65;80.29;101280.41;5012655;28;20021;-65
2023/10/14 09:38:20;;;;;;;13.45;2.78;;;;;;;14.81;80.68;101311.56;5006935;28;20021;-66
2023/10/14 09:41:04;;;;;;;11.95;2.58;;;;;;;14.61;79.19;101294.72;5008618;28;20064;-66
2023/10/14 09:43:32;;;;;;;12.82;2.15;;;;;;;14.66;77.52;101311.28;5006431;28;20359;-62
2023/10/14 09:45:59;;;;;;;8.65;1.85;;;;;;;14.59;76.31;101309.84;5008012;28;20034;-63
2023/10/14 09:48:29;;;;;;;11.75;2.47;;;;;;;14.52;74.27;101305.72;5006792;28;20064;-65
2023/10/14 09:50:55;;;;;;;15.45;2.35;;;;;;;14.51;76.23;101320.75;5007272;28;20369;-62
2023/10/14 09:53:28;;;;;;;13.70;2.35;;;;;;;14.47;77.15;101313.00;5008437;28;20100;-61
2023/10/14 09:55:57;;;;;;;16.90;2.40;;;;;;;14.59;80.00;101316.91;5006522;28;20033;-64
2023/10/14 09:58:24;;;;;;;15.70;2.28;;;;;;;14.59;80.15;101322.22;5007816;28;20065;-66
2023/10/14 10:00:49;;;;;;;12.18;2.92;;;;;;;14.69;81.25;101312.94;5008366;28;20447;-64
2023/10/14 10:03:15;;;;;;;8.40;2.55;;;;;;;14.78;81.28;101323.19;5007254;28;20022;-63
2023/10/14 10:05:58;;;;;;;9.40;2.45;;;;;;;14.64;77.87;101330.84;5007827;28;20025;-62
2023/10/14 10:08:29;;;;;;;17.05;3.63;;;;;;;14.52;77.36;101349.03;5005960;28;20064;-62
2023/10/14 10:10:54;;;;;;;14.23;2.55;;;;;;;14.44;80.06;101335.22;5007596;28;20112;-61
2023/10/14 10:13:23;;;;;;;16.15;2.70;;;;;;;14.36;80.78;101342.66;5005637;28;20482;-62
2023/10/14 10:15:50;;;;;;;11.13;2.45;;;;;;;14.33;81.07;101337.47;5004478;28;20050;-61
2023/10/14 10:18:16;;;;;;;16.33;2.55;;;;;;;14.35;83.50;101351.50;5012127;28;20483;-61
2023/10/14 10:20:55;;;;;;;9.85;2.28;;;;;;;14.35;81.35;101357.69;5006507;28;20133;-63
2023/10/14 10:23:22;;;;;;;16.02;2.92;;;;;;;14.52;82.47;101348.16;5002915;28;20080;-61
2023/10/14 10:25:49;;;;;;;14.35;2.40;;;;;;;14.57;79.74;101343.50;5006450;28;20377;-61
2023/10/14 10:28:35;;;;;;;13.55;2.35;;;;;;;14.68;80.19;101342.16;5006640;28;20469;-59
2023/10/14 10:31:11;;;;;;;13.90;2.22;;;;;;;14.85;80.44;101346.78;5006769;28;20037;-59
2023/10/14 10:33:49;;;;;;;13.57;2.25;;;;;;;14.93;75.51;101349.13;5006471;28;20010;-64
2023/10/14 10:36:21;;;;;;;17.37;2.27;;;;;;;15.05;75.55;101359.16;5007679;28;20544;-65
2023/10/14 10:38:47;;;;;;;9.10;1.98;;;;;;;14.92;71.61;101358.84;5004231;28;20026;-65
2023/10/14 10:41:26;;;;;;;13.63;2.83;;;;;;;14.93;73.44;101351.78;5007358;28;20025;-63
2023/10/14 10:43:52;;;;;;;;;;;;;;;14.87;68.70;101364.34;5004647;28;20076;-64
2023/10/14 10:46:29;;;;;;;9.00;2.08;;;;;;;14.91;70.24;101381.84;5007240;28;20192;-64
2023/10/14 10:48:55;;;;;;;16.02;2.70;;;;;;;14.86;68.43;101381.22;5002681;28;20612;-65
2023/10/14 10:51:21;;;;;;;16.75;2.60;;;;;;;14.75;73.48;101381.63;5006530;28;20030;-66
2023/10/14 10:53:49;;;;;;;15.35;2.40;;;;;;;14.59;73.77;101386.75;5006076;28;20492;-61
2023/10/14 10:56:15;;;;;;;8.30;2.03;;;;;;;14.24;73.76;101367.88;5006740;28;20072;-62
2023/10/14 10:58:41;;;;;;;11.98;1.98;;;;;;;14.30;73.37;101369.41;5006685;28;20484;-63
2023/10/14 11:01:07;;;;;;;8.15;2.15;;;;;;;14.52;75.06;101382.63;5006400;28;20029;-62
2023/10/14 11:03:34;;;;;;;12.23;1.98;;;;;;;14.70;73.02;101378.34;5006477;28;20033;-62
2023/10/14 11:05:59;;;;;;;8.95;1.92;;;;;;;14.81;68.74;101388.50;5027119;28;20132;-61
2023/10/14 11:08:25;;;;;;;14.25;1.90;;;;;;;14.89;69.25;101402.31;5025241;28;20340;-62
2023/10/14 11:10:51;;;;;;;12.05;2.10;;;;;;;15.02;72.00;101388.53;5024389;28;20125;-64
2023/10/14 11:13:16;;;;;;;7.45;2.55;;;;;;;14.82;67.13;101400.84;5026477;28;20049;-63
2023/10/14 11:15:44;;;;;;;10.73;1.90;;;;;;;14.69;69.23;101387.19;5025157;28;20424;-62
2023/10/14 11:18:10;;;;;;;10.70;2.13;;;;;;;14.57;70.48;101409.78;5026344;28;20018;-61
2023/10/14 11:20:40;;;;;;;15.43;2.65;;;;;;;14.70;72.36;101394.25;5026631;28;20033;-63
2023/10/14 11:23:09;;;;;;;13.90;2.40;;;;;;;14.81;69.83;101417.69;5018117;28;20064;-63
2023/10/14 11:25:49;;;;;;;8.55;1.70;;;;;;;14.70;63.84;101404.00;4989800;28;20034;-63
2023/10/14 11:28:15;;;;;;;10.65;2.20;;;;;;;14.61;68.24;101423.81;5006950;28;20021;-62
2023/10/14 11:30:42;;;;;;;12.27;2.13;;;;;;;14.67;68.13;101412.94;5006359;28;20437;-65
2023/10/14 11:33:09;;;;;;;7.97;1.52;;;;;;;14.63;65.15;101395.44;5005156;28;20112;-65
2023/10/14 11:35:37;;;;;;;13.35;2.10;;;;;;;14.60;68.23;101409.66;5005275;28;20418;-63
2023/10/14 11:38:08;;;;;;;12.10;2.10;;;;;;;14.84;72.79;101416.72;5007200;28;20028;-64
2023/10/14 11:40:35;;;;;;;8.85;2.20;;;;;;;15.27;73.74;101398.03;5006323;28;20014;-64
2023/10/14 11:43:00;;;;;;;14.50;1.90;;;;;;;15.61;71.20;101404.47;5016134;28;20392;-65
2023/10/14 11:45:26;;;;;;;12.85;2.33;;;;;;;15.73;67.47;101396.84;5026449;28;20022;-64
2023/10/14 11:47:52;;;;;;;11.30;1.83;;;;;;;16.01;66.32;101416.81;5018606;28;20032;-61
2023/10/14 11:50:17;;;;;;;8.40;1.75;;;;;;;15.92;67.13;101456.16;5005719;28;20454;-63
2023/10/14 11:52:43;;;;;;;10.35;2.03;;;;;;;15.68;68.73;101417.47;5005630;28;20021;-65
2023/10/14 11:55:15;;;;;;;11.43;2.20;;;;;;;15.14;67.52;101435.72;5003685;28;20018;-61